createdAt,value
2022-08-01T00:04:01.369Z,100005.13
2022-08-01T00:14:03.687Z,99999.41
2022-08-01T00:24:05.335Z,100007.66
2022-08-01T00:34:07.064Z,99990.88
2022-08-01T00:44:08.762Z,99993.22
2022-08-01T00:54:10.634Z,99989.25
2022-08-01T01:04:15.056Z,99987.13
2022-08-01T01:14:55.041Z,99982.22
2022-08-01T01:25:03.796Z,99977.22
2022-08-01T01:35:28.051Z,99960.94
2022-08-01T01:45:31.581Z,99970.97
2022-08-01T01:55:49.017Z,99980.50
2022-08-01T02:05:56.623Z,99968.69
2022-08-01T02:16:00.449Z,99962.00
2022-08-01T02:26:10.905Z,99957.72
2022-08-01T02:36:30.375Z,99961.28
2022-08-01T02:46:53.827Z,99956.38
2022-08-01T02:56:58.590Z,99959.88
2022-08-01T03:07:07.492Z,99957.72
2022-08-01T03:17:10.879Z,99955.16
2022-08-01T03:27:15.501Z,99918.16
2022-08-01T03:38:16.431Z,99934.19
2022-08-01T03:48:23.790Z,99924.56
2022-08-01T03:58:45.154Z,99937.53
2022-08-01T04:08:58.260Z,99910.09
2022-08-01T04:19:00.024Z,99955.31
2022-08-01T04:29:06.238Z,99965.38
2022-08-01T04:39:08.350Z,99963.28
2022-08-01T04:49:12.955Z,99970.81
2022-08-01T04:59:33.065Z,99941.69
2022-08-01T05:09:37.583Z,99937.91
2022-08-01T05:19:40.525Z,99972.72
2022-08-01T05:29:44.844Z,99972.78
2022-08-01T05:39:46.784Z,99967.78
2022-08-01T05:49:50.498Z,99972.06
2022-08-01T05:59:59.993Z,99970.00
2022-08-01T06:10:01.863Z,99975.22
2022-08-01T06:20:05.612Z,99976.94
2022-08-01T06:30:08.767Z,99972.72
2022-08-01T06:40:29.939Z,99970.53
2022-08-01T06:50:36.862Z,99994.84
2022-08-01T07:00:39.863Z,99989.06
2022-08-01T07:10:44.010Z,99975.59
2022-08-01T07:20:51.116Z,99977.38
2022-08-01T07:30:54.715Z,99971.25
2022-08-01T07:40:56.453Z,99975.31
2022-08-01T07:50:59.143Z,99967.97
2022-08-01T08:01:01.213Z,99972.03
2022-08-01T08:11:04.023Z,99979.41
2022-08-01T08:21:06.928Z,99956.63
2022-08-01T08:31:25.406Z,99971.69
2022-08-01T08:41:37.551Z,99986.88
2022-08-01T08:51:42.476Z,100013.13
2022-08-01T09:01:44.547Z,100016.22
2022-08-01T09:11:57.665Z,100020.09
2022-08-01T09:22:11.336Z,100018.41
2022-08-01T09:32:16.256Z,100017.50
2022-08-01T09:42:29.495Z,100013.44
2022-08-01T09:52:31.406Z,100019.97
2022-08-01T10:02:40.193Z,100006.28
2022-08-01T10:12:46.004Z,100016.91
2022-08-01T10:22:58.887Z,100023.81
2022-08-01T10:33:04.314Z,100002.91
2022-08-01T10:43:07.913Z,100006.94
2022-08-01T10:53:23.417Z,100005.19
2022-08-01T11:03:55.484Z,99992.31
2022-08-01T11:14:13.794Z,99986.31
2022-08-01T11:24:52.159Z,99990.44
2022-08-01T11:34:57.394Z,99979.50
2022-08-01T11:44:59.034Z,99970.94
2022-08-01T11:55:11.648Z,99971.31
2022-08-01T12:05:18.222Z,99960.00
2022-08-01T12:15:24.173Z,99964.69
2022-08-01T12:25:25.911Z,99971.84
2022-08-01T12:35:29.375Z,99967.31
2022-08-01T12:45:30.973Z,99970.59
2022-08-01T12:55:34.154Z,99958.53
2022-08-01T13:05:42.544Z,99956.81
2022-08-01T13:15:45.712Z,99946.22
2022-08-01T13:25:56.653Z,99945.88
2022-08-01T13:35:58.482Z,99938.38
2022-08-01T13:46:05.015Z,99938.16
2022-08-01T13:56:07.462Z,99911.66
2022-08-01T14:06:12.446Z,99936.97
2022-08-01T14:16:14.353Z,99923.88
2022-08-01T14:26:17.229Z,99938.97
2022-08-01T14:36:29.534Z,99932.47
2022-08-01T14:46:34.659Z,99929.69
2022-08-01T14:56:36.538Z,99934.72
2022-08-01T15:06:38.369Z,99934.59
2022-08-01T15:16:41.161Z,99928.66
2022-08-01T15:26:42.856Z,99919.84
2022-08-01T15:36:45.767Z,99934.91
2022-08-01T15:46:50.726Z,99940.38
2022-08-01T15:56:52.672Z,99929.06
2022-08-01T16:06:55.446Z,99932.72
2022-08-01T16:17:03.291Z,99946.13
2022-08-01T16:27:12.587Z,99934.69
2022-08-01T16:37:17.866Z,99932.13
2022-08-01T16:47:19.661Z,99934.53
2022-08-01T16:57:21.280Z,99936.00
2022-08-01T17:07:23.148Z,99943.13
2022-08-01T17:17:34.625Z,99953.34
2022-08-01T17:27:54.410Z,99960.81
2022-08-01T17:38:04.342Z,99961.97
2022-08-01T17:58:49.677Z,99972.47
2022-08-01T18:08:59.422Z,99973.38
2022-08-01T18:19:01.569Z,99982.63
2022-08-01T18:29:08.203Z,99982.09
2022-08-01T18:39:10.954Z,99998.63
2022-08-01T18:49:13.114Z,100011.63
2022-08-01T18:59:18.016Z,99987.66
2022-08-01T19:09:23.159Z,100025.16
2022-08-01T19:19:27.812Z,100038.94
2022-08-01T19:29:36.480Z,100042.00
2022-08-01T19:39:46.709Z,100054.22
2022-08-01T19:49:48.551Z,100049.66
2022-08-01T19:59:54.681Z,100034.22
2022-08-01T20:09:57.016Z,100059.25
2022-08-01T20:20:00.248Z,100039.06
2022-08-01T20:30:07.065Z,100026.28
2022-08-01T20:40:12.346Z,100062.81
2022-08-01T20:50:53.720Z,100074.38
2022-08-01T21:00:59.674Z,100065.44
2022-08-01T21:11:03.598Z,100064.50
2022-08-01T21:21:10.575Z,100078.50
2022-08-01T21:31:21.441Z,100083.72
2022-08-01T21:42:03.274Z,100063.97
2022-08-01T21:52:00.218Z,100077.06
2022-08-01T22:02:09.479Z,100068.22
2022-08-01T22:12:18.247Z,100076.00
2022-08-01T22:22:45.228Z,100076.81
2022-08-01T22:33:07.982Z,100091.47
2022-08-01T22:43:24.072Z,100095.78
2022-08-01T22:53:28.712Z,100092.31
2022-08-01T23:03:35.118Z,100088.44
2022-08-01T23:13:39.179Z,100099.94
2022-08-01T23:23:42.852Z,100101.31
2022-08-01T23:33:51.581Z,100077.47
2022-08-01T23:43:55.290Z,100091.13
2022-08-01T23:53:58.016Z,100085.25
